createdAt,value
2018-03-03T00:01:26.309Z,58.65
2018-03-03T00:03:52.257Z,60.20
2018-03-03T00:06:18.349Z,61.42
2018-03-03T00:08:44.300Z,60.12
2018-03-03T00:11:10.231Z,64.05
2018-03-03T00:13:36.952Z,61.05
2018-03-03T00:16:02.912Z,66.75
2018-03-03T00:18:29.646Z,62.60
2018-03-03T00:20:56.337Z,61.13
2018-03-03T00:23:22.287Z,59.00
2018-03-03T00:25:48.381Z,61.60
2018-03-03T00:28:14.315Z,60.70
2018-03-03T00:30:40.320Z,63.92
2018-03-03T00:33:06.257Z,58.78
2018-03-03T00:35:32.505Z,60.88
2018-03-03T00:37:58.488Z,60.47
2018-03-03T00:40:24.431Z,59.92
2018-03-03T00:42:50.553Z,61.45
2018-03-03T00:45:16.493Z,64.07
2018-03-03T00:47:42.473Z,59.33
2018-03-03T00:50:08.433Z,61.00
2018-03-03T00:52:34.368Z,62.88
2018-03-03T00:55:01.086Z,63.70
2018-03-03T00:57:27.058Z,60.70
2018-03-03T00:59:53.151Z,61.88
2018-03-03T01:02:19.090Z,63.15
2018-03-03T01:04:45.811Z,66.15
2018-03-03T01:07:11.767Z,65.78
2018-03-03T01:09:37.869Z,64.97
2018-03-03T01:12:04.552Z,64.03
2018-03-03T01:14:30.495Z,61.22
2018-03-03T01:16:56.459Z,62.45
2018-03-03T01:19:23.160Z,64.37
2018-03-03T01:21:49.128Z,65.93
2018-03-03T01:24:15.068Z,63.10
2018-03-03T01:26:41.140Z,64.70
2018-03-03T01:29:07.071Z,61.95
2018-03-03T01:31:32.992Z,64.80
2018-03-03T01:33:59.071Z,65.50
2018-03-03T01:36:25.012Z,65.85
2018-03-03T01:38:50.979Z,67.47
2018-03-03T01:41:17.069Z,68.78
2018-03-03T01:43:43.047Z,66.93
2018-03-03T01:46:09.011Z,68.55
2018-03-03T01:48:35.077Z,65.47
2018-03-03T01:51:01.013Z,61.75
2018-03-03T01:53:26.980Z,61.08
2018-03-03T01:55:52.917Z,64.53
2018-03-03T01:58:18.864Z,61.37
2018-03-03T02:00:44.843Z,61.00
2018-03-03T02:03:10.768Z,62.00
2018-03-03T02:05:36.875Z,64.53
2018-03-03T02:08:02.807Z,64.28
2018-03-03T02:10:28.765Z,65.32
2018-03-03T02:12:55.436Z,67.18
2018-03-03T02:15:21.404Z,67.45
2018-03-03T02:17:47.337Z,68.12
2018-03-03T02:20:14.163Z,64.25
2018-03-03T02:22:40.121Z,67.80
2018-03-03T02:25:06.040Z,68.07
2018-03-03T02:27:32.000Z,68.70
2018-03-03T02:29:57.938Z,65.80
2018-03-03T02:32:24.029Z,68.50
2018-03-03T02:34:50.129Z,67.20
2018-03-03T02:37:16.796Z,71.07
2018-03-03T02:39:42.789Z,69.25
2018-03-03T02:42:09.508Z,69.43
2018-03-03T02:44:35.467Z,68.87
2018-03-03T02:47:01.408Z,71.65
2018-03-03T02:49:27.411Z,73.15
2018-03-03T02:51:53.357Z,71.72
2018-03-03T02:54:19.296Z,71.53
2018-03-03T02:56:45.384Z,67.80
2018-03-03T02:59:11.333Z,72.12
2018-03-03T03:01:37.304Z,69.25
2018-03-03T03:04:03.977Z,70.43
2018-03-03T03:06:30.076Z,69.90
2018-03-03T03:08:56.024Z,73.00
2018-03-03T03:11:22.078Z,71.87
2018-03-03T03:13:48.036Z,68.55
2018-03-03T03:16:14.727Z,67.07
2018-03-03T03:18:40.679Z,71.00
2018-03-03T03:21:07.372Z,65.57
2018-03-03T03:23:33.357Z,68.50
2018-03-03T03:26:00.047Z,70.70
2018-03-03T03:28:26.125Z,73.50
2018-03-03T03:30:52.796Z,69.57
2018-03-03T03:33:18.754Z,71.82
2018-03-03T03:35:44.757Z,70.47
2018-03-03T03:38:10.644Z,71.70
2018-03-03T03:40:36.587Z,72.27
2018-03-03T03:43:02.676Z,69.45
2018-03-03T03:45:29.401Z,71.75
2018-03-03T03:47:56.103Z,72.37
2018-03-03T03:50:22.075Z,68.45
2018-03-03T03:52:48.744Z,77.78
2018-03-03T03:55:14.833Z,72.68
2018-03-03T03:57:41.508Z,74.50
2018-03-03T04:00:07.483Z,71.75
2018-03-03T04:02:34.168Z,70.43
2018-03-03T04:05:00.107Z,68.30
2018-03-03T04:07:26.085Z,72.25
2018-03-03T04:09:52.748Z,71.90
2018-03-03T04:12:18.819Z,73.12
2018-03-03T04:14:44.753Z,69.55
2018-03-03T04:17:11.484Z,68.20
2018-03-03T04:19:37.425Z,73.72
2018-03-03T04:22:04.133Z,74.80
2018-03-03T04:24:30.067Z,70.05
2018-03-03T04:26:56.001Z,73.95
2018-03-03T04:29:22.714Z,76.05
2018-03-03T04:31:48.651Z,70.85
2018-03-03T04:34:14.751Z,70.97
2018-03-03T04:36:40.835Z,70.47
2018-03-03T04:39:06.809Z,72.30
2018-03-03T04:41:32.768Z,73.57
2018-03-03T04:43:58.736Z,74.78
2018-03-03T04:46:24.697Z,76.18
2018-03-03T04:48:51.405Z,71.95
2018-03-03T04:51:17.484Z,71.60
2018-03-03T04:53:43.428Z,72.60
2018-03-03T04:56:09.399Z,71.28
2018-03-03T04:58:36.071Z,71.43
2018-03-03T05:01:02.036Z,68.10
2018-03-03T05:03:27.979Z,70.15
2018-03-03T05:05:54.655Z,73.90
2018-03-03T05:08:20.731Z,73.22
2018-03-03T05:10:46.664Z,70.00
2018-03-03T05:13:13.367Z,76.87
2018-03-03T05:15:39.295Z,71.97
2018-03-03T05:18:05.251Z,76.87
2018-03-03T05:20:31.948Z,70.37
2018-03-03T05:22:58.025Z,77.40
2018-03-03T05:25:24.702Z,68.15
2018-03-03T05:27:50.639Z,74.72
2018-03-03T05:30:16.601Z,71.37
2018-03-03T05:32:43.296Z,75.25
2018-03-03T05:35:09.277Z,72.90
2018-03-03T05:37:35.207Z,70.60
2018-03-03T05:40:01.213Z,69.97
2018-03-03T05:42:27.886Z,67.68
2018-03-03T05:45:01.584Z,70.72
2018-03-03T05:47:27.559Z,70.78
2018-03-03T05:49:53.523Z,67.72
2018-03-03T05:52:19.455Z,70.32
2018-03-03T05:54:45.416Z,72.18
2018-03-03T05:57:11.483Z,69.70
2018-03-03T05:59:37.422Z,68.65
2018-03-03T06:02:03.400Z,69.03
2018-03-03T06:04:30.091Z,70.03
2018-03-03T06:06:56.028Z,72.05
2018-03-03T06:09:22.125Z,67.62
2018-03-03T06:11:48.064Z,67.18
2018-03-03T06:14:14.027Z,70.05
2018-03-03T06:16:40.708Z,68.07
2018-03-03T06:19:06.655Z,63.67
2018-03-03T06:21:32.583Z,66.85
2018-03-03T06:23:58.588Z,63.78
2018-03-03T06:26:24.549Z,67.43
2018-03-03T06:28:50.467Z,75.87
2018-03-03T06:31:17.284Z,64.97
2018-03-03T06:33:43.212Z,67.40
2018-03-03T06:36:09.185Z,66.28
2018-03-03T06:38:35.113Z,68.97
2018-03-03T06:41:01.136Z,69.25
2018-03-03T06:43:27.072Z,66.07
2018-03-03T06:45:53.067Z,71.28
2018-03-03T06:48:19.007Z,68.28
2018-03-03T06:50:44.960Z,69.03
2018-03-03T06:53:10.924Z,67.90
2018-03-03T06:55:37.599Z,76.12
2018-03-03T06:58:03.687Z,66.18
2018-03-03T07:00:30.375Z,70.35
2018-03-03T07:02:56.379Z,67.87
2018-03-03T07:05:22.328Z,70.07
2018-03-03T07:07:48.279Z,68.20
2018-03-03T07:10:14.993Z,69.95
2018-03-03T07:12:40.966Z,70.95
2018-03-03T07:15:06.917Z,68.10
2018-03-03T07:17:32.923Z,68.70
2018-03-03T07:19:58.852Z,68.53
2018-03-03T07:22:24.888Z,71.83
2018-03-03T07:24:50.789Z,73.35
2018-03-03T07:27:16.744Z,71.30
2018-03-03T07:29:42.667Z,68.15
2018-03-03T07:32:08.640Z,73.37
2018-03-03T07:34:34.607Z,68.90
2018-03-03T07:37:00.558Z,73.97
2018-03-03T07:39:27.314Z,73.12
2018-03-03T07:41:54.157Z,73.32
2018-03-03T07:44:20.133Z,74.72
2018-03-03T07:46:46.059Z,74.65
2018-03-03T07:49:12.040Z,75.00
2018-03-03T07:51:38.028Z,75.43
2018-03-03T07:54:04.704Z,77.40
2018-03-03T07:56:30.696Z,78.28
2018-03-03T07:58:57.405Z,74.70
2018-03-03T08:01:23.372Z,77.18
2018-03-03T08:03:49.304Z,78.62
2018-03-03T08:06:15.320Z,79.15
2018-03-03T08:08:41.279Z,72.75
2018-03-03T08:11:07.307Z,76.57
2018-03-03T08:13:33.241Z,78.28
2018-03-03T08:15:59.200Z,74.00
2018-03-03T08:18:25.924Z,66.47
2018-03-03T08:20:51.903Z,70.10
2018-03-03T08:23:17.860Z,73.40
2018-03-03T08:25:43.800Z,72.55
2018-03-03T08:28:09.885Z,71.05
2018-03-03T08:30:35.849Z,69.10
2018-03-03T08:33:02.561Z,64.90
2018-03-03T08:35:28.686Z,68.25
2018-03-03T08:37:54.673Z,65.30
2018-03-03T08:40:20.624Z,59.30
2018-03-03T08:42:46.627Z,62.70
2018-03-03T08:45:12.627Z,60.85
2018-03-03T08:47:38.576Z,61.37
2018-03-03T08:50:04.672Z,60.25
2018-03-03T08:52:30.623Z,64.85
2018-03-03T08:54:56.620Z,61.85
2018-03-03T08:57:22.561Z,60.90
2018-03-03T08:59:48.529Z,63.90
2018-03-03T09:02:15.258Z,60.92
2018-03-03T09:04:41.242Z,61.13
2018-03-03T09:07:07.348Z,54.47
2018-03-03T09:09:33.301Z,58.80
2018-03-03T09:11:59.276Z,59.70
2018-03-03T09:14:25.245Z,59.90
2018-03-03T09:16:51.231Z,57.28
2018-03-03T09:19:17.441Z,59.15
2018-03-03T09:21:43.436Z,55.03
2018-03-03T09:24:09.477Z,54.45
2018-03-03T09:26:36.218Z,56.22
2018-03-03T09:29:05.185Z,55.67
2018-03-03T09:31:32.314Z,51.05
2018-03-03T09:33:58.765Z,52.33
2018-03-03T09:36:25.782Z,51.50
2018-03-03T09:38:51.787Z,52.00
2018-03-03T09:41:17.913Z,53.78
2018-03-03T09:43:43.904Z,49.92
2018-03-03T09:46:09.943Z,48.75
2018-03-03T09:48:35.903Z,48.80
2018-03-03T09:51:02.064Z,50.00
2018-03-03T09:53:28.080Z,53.83
2018-03-03T09:55:54.109Z,47.45
2018-03-03T09:58:20.886Z,50.03
2018-03-03T10:00:47.033Z,47.30
2018-03-03T10:03:13.029Z,48.50
2018-03-03T10:05:44.787Z,48.22
2018-03-03T10:08:11.105Z,47.45
2018-03-03T10:10:40.370Z,47.55
2018-03-03T10:13:06.685Z,47.00
2018-03-03T10:15:32.895Z,46.20
2018-03-03T10:17:58.838Z,49.05
2018-03-03T10:20:26.523Z,46.70
2018-03-03T10:22:54.313Z,43.97
2018-03-03T10:25:22.453Z,46.08
2018-03-03T10:27:49.984Z,44.42
2018-03-03T10:30:17.112Z,44.72
2018-03-03T10:32:43.781Z,45.20
2018-03-03T10:35:09.825Z,46.40
2018-03-03T10:37:36.313Z,46.83
2018-03-03T10:40:02.377Z,40.63
2018-03-03T10:42:28.545Z,42.15
2018-03-03T10:44:54.521Z,41.80
2018-03-03T10:47:20.964Z,41.92
2018-03-03T10:49:47.096Z,44.17
2018-03-03T10:52:13.117Z,45.08
2018-03-03T10:54:39.144Z,43.38
2018-03-03T10:57:05.117Z,41.63
2018-03-03T10:59:31.103Z,43.55
2018-03-03T11:01:57.111Z,45.12
2018-03-03T11:04:23.067Z,43.92
2018-03-03T11:06:49.060Z,40.60
2018-03-03T11:09:15.036Z,39.92
2018-03-03T11:11:41.184Z,41.40
2018-03-03T11:14:07.258Z,40.28
2018-03-03T11:16:33.251Z,39.75
2018-03-03T11:18:59.418Z,37.97
2018-03-03T11:21:25.434Z,39.45
2018-03-03T11:23:52.286Z,37.60
2018-03-03T11:26:18.404Z,38.95
2018-03-03T11:28:44.627Z,35.92
2018-03-03T11:31:12.613Z,36.30
2018-03-03T11:33:38.681Z,34.65
2018-03-03T11:36:04.840Z,34.70
2018-03-03T11:38:31.644Z,36.65
2018-03-03T11:41:00.815Z,33.22
2018-03-03T11:43:27.429Z,32.55
2018-03-03T11:46:00.634Z,33.63
2018-03-03T11:48:29.810Z,33.53
2018-03-03T11:50:57.989Z,33.53
2018-03-03T11:53:24.774Z,31.70
2018-03-03T11:55:54.667Z,33.38
2018-03-03T11:58:22.772Z,29.75
2018-03-03T12:00:48.920Z,29.87
2018-03-03T12:03:16.681Z,28.92
2018-03-03T12:05:45.105Z,29.83
2018-03-03T12:08:12.429Z,29.15
2018-03-03T12:10:38.745Z,30.92
2018-03-03T12:13:05.836Z,32.83
2018-03-03T12:15:33.291Z,27.60
2018-03-03T12:18:01.173Z,29.30
2018-03-03T12:20:28.606Z,29.45
2018-03-03T12:22:54.727Z,28.95
2018-03-03T12:25:20.721Z,28.98
2018-03-03T12:27:46.741Z,29.23
2018-03-03T12:30:12.800Z,26.73
2018-03-03T12:32:38.816Z,28.45
2018-03-03T12:35:05.815Z,27.27
2018-03-03T12:37:31.863Z,27.48
2018-03-03T12:39:57.930Z,27.25
2018-03-03T12:42:23.946Z,24.85
2018-03-03T12:44:49.947Z,24.15
2018-03-03T12:47:16.701Z,22.35
2018-03-03T12:49:43.496Z,23.80
2018-03-03T12:52:10.402Z,22.75
2018-03-03T12:54:36.401Z,23.00
2018-03-03T12:57:03.310Z,20.92
2018-03-03T12:59:29.313Z,22.02
2018-03-03T13:01:55.316Z,19.48
2018-03-03T13:04:21.270Z,16.87
2018-03-03T13:06:47.405Z,18.57
2018-03-03T13:09:13.411Z,16.92
2018-03-03T13:11:39.395Z,17.33
2018-03-03T13:14:05.358Z,19.45
2018-03-03T13:16:31.314Z,19.67
2018-03-03T13:18:57.396Z,20.30
2018-03-03T13:21:23.345Z,21.70
2018-03-03T13:23:49.307Z,22.43
2018-03-03T13:26:16.013Z,19.83
2018-03-03T13:28:41.970Z,21.33
2018-03-03T13:31:07.972Z,18.73
2018-03-03T13:33:33.936Z,15.13
2018-03-03T13:36:00.101Z,15.30
2018-03-03T13:38:26.036Z,19.12
2018-03-03T13:40:51.976Z,18.50
2018-03-03T13:43:17.973Z,15.07
2018-03-03T13:45:43.928Z,13.70
2018-03-03T13:48:10.059Z,16.57
2018-03-03T13:50:35.996Z,17.08
2018-03-03T13:53:01.981Z,15.03
2018-03-03T13:55:28.699Z,16.33
2018-03-03T13:57:54.649Z,15.20
2018-03-03T14:00:21.514Z,11.40
2018-03-03T14:02:47.484Z,11.25
2018-03-03T14:05:13.595Z,11.30
2018-03-03T14:07:39.552Z,10.93
2018-03-03T14:10:05.544Z,10.20
2018-03-03T14:12:31.487Z,10.07
2018-03-03T14:14:57.416Z,10.80
2018-03-03T14:17:23.424Z,10.37
2018-03-03T14:19:49.396Z,11.15
2018-03-03T14:22:15.417Z,10.32
2018-03-03T14:24:41.397Z,9.70
2018-03-03T14:27:07.377Z,8.80
2018-03-03T14:29:33.382Z,10.35
2018-03-03T14:31:59.339Z,10.52
2018-03-03T14:34:25.436Z,15.20
2018-03-03T14:36:51.541Z,9.55
2018-03-03T14:39:18.249Z,9.05
2018-03-03T14:41:44.216Z,10.60
2018-03-03T14:44:10.221Z,9.37
2018-03-03T14:46:36.913Z,8.52
2018-03-03T14:49:02.851Z,8.20
2018-03-03T14:51:28.816Z,8.67
2018-03-03T14:53:54.780Z,8.13
2018-03-03T14:56:20.784Z,8.17
2018-03-03T14:58:46.752Z,8.15
2018-03-03T15:01:13.443Z,9.15
2018-03-03T15:03:39.409Z,8.68
2018-03-03T15:06:06.173Z,8.45
2018-03-03T15:08:32.325Z,9.57
2018-03-03T15:10:58.427Z,10.10
2018-03-03T15:13:25.172Z,10.50
2018-03-03T15:15:51.213Z,10.45
2018-03-03T15:18:17.205Z,11.77
2018-03-03T15:20:43.951Z,11.23
2018-03-03T15:23:10.652Z,10.27
2018-03-03T15:25:36.763Z,11.40
2018-03-03T15:28:02.773Z,10.75
2018-03-03T15:30:28.789Z,11.18
2018-03-03T15:32:54.761Z,11.65
2018-03-03T15:35:20.752Z,12.45
2018-03-03T15:37:46.724Z,12.65
2018-03-03T15:40:12.670Z,11.63
2018-03-03T15:42:38.673Z,13.33
2018-03-03T15:45:05.605Z,11.63
2018-03-03T15:47:31.579Z,12.98
2018-03-03T15:49:57.561Z,11.73
2018-03-03T15:52:24.252Z,12.00
2018-03-03T15:54:50.205Z,11.63
2018-03-03T15:57:16.921Z,12.67
2018-03-03T15:59:42.854Z,10.38
2018-03-03T16:02:08.975Z,9.40
2018-03-03T16:04:34.936Z,10.32
2018-03-03T16:07:00.932Z,10.67
2018-03-03T16:09:27.639Z,10.40
2018-03-03T16:11:53.624Z,9.50
2018-03-03T16:14:19.589Z,9.38
2018-03-03T16:16:45.606Z,13.05
2018-03-03T16:19:11.549Z,11.70
2018-03-03T16:21:37.568Z,12.30
2018-03-03T16:24:03.719Z,12.02
2018-03-03T16:26:29.701Z,11.15
2018-03-03T16:28:55.686Z,12.10
2018-03-03T16:31:21.672Z,11.02
2018-03-03T16:33:47.773Z,12.40
2018-03-03T16:36:13.741Z,12.60
2018-03-03T16:38:39.748Z,12.60
2018-03-03T16:41:05.708Z,12.55
2018-03-03T16:43:31.897Z,9.68
2018-03-03T16:45:57.903Z,9.95
2018-03-03T16:48:23.841Z,10.48
2018-03-03T16:50:49.924Z,10.00
2018-03-03T16:53:16.598Z,10.53
2018-03-03T16:55:42.599Z,10.57
2018-03-03T16:58:08.583Z,7.45
2018-03-03T17:00:34.584Z,6.25
2018-03-03T17:03:01.300Z,6.07
2018-03-03T17:05:27.422Z,4.43
2018-03-03T17:07:53.370Z,3.40
2018-03-03T17:10:20.095Z,3.00
2018-03-03T17:12:46.097Z,4.40
2018-03-03T17:15:12.090Z,4.30
2018-03-03T17:17:38.084Z,5.35
2018-03-03T17:20:04.790Z,4.37
2018-03-03T17:22:30.880Z,4.80
2018-03-03T17:24:56.806Z,6.07
2018-03-03T17:27:22.808Z,5.70
2018-03-03T17:29:48.785Z,5.65
2018-03-03T17:32:14.796Z,6.22
2018-03-03T17:34:40.872Z,6.93
2018-03-03T17:37:07.561Z,7.28
2018-03-03T17:39:33.581Z,7.12
2018-03-03T17:41:59.559Z,8.25
2018-03-03T17:44:25.567Z,7.40
2018-03-03T17:46:51.520Z,7.90
2018-03-03T17:49:17.537Z,7.73
2018-03-03T17:51:43.486Z,8.30
2018-03-03T17:54:09.636Z,8.90
2018-03-03T17:56:35.598Z,8.38
2018-03-03T17:59:01.553Z,8.40
2018-03-03T18:01:27.536Z,9.38
2018-03-03T18:03:54.235Z,10.50
2018-03-03T18:06:20.229Z,11.23
2018-03-03T18:08:46.182Z,14.77
2018-03-03T18:11:12.326Z,13.83
2018-03-03T18:13:39.035Z,13.45
2018-03-03T18:16:04.997Z,18.37
2018-03-03T18:18:31.708Z,17.87
2018-03-03T18:20:57.674Z,20.30
2018-03-03T18:23:23.646Z,18.73
2018-03-03T18:25:49.647Z,17.90
2018-03-03T18:28:15.994Z,17.75
2018-03-03T18:30:41.974Z,14.20
2018-03-03T18:33:08.091Z,14.80
2018-03-03T18:35:34.196Z,12.48
2018-03-03T18:38:00.168Z,13.07
2018-03-03T18:40:26.144Z,12.45
2018-03-03T18:42:52.997Z,12.32
2018-03-03T18:45:19.720Z,13.75
2018-03-03T18:47:45.706Z,13.23
2018-03-03T18:50:11.657Z,13.80
2018-03-03T18:52:37.612Z,15.52
2018-03-03T18:55:03.580Z,15.30
2018-03-03T18:57:29.555Z,16.40
2018-03-03T18:59:55.628Z,12.75
2018-03-03T19:02:21.648Z,14.82
2018-03-03T19:04:47.599Z,16.17
2018-03-03T19:07:14.356Z,14.48
2018-03-03T19:09:41.041Z,13.55
2018-03-03T19:12:07.041Z,14.10
2018-03-03T19:14:32.987Z,12.37
2018-03-03T19:16:59.028Z,13.47
2018-03-03T19:19:24.986Z,11.55
2018-03-03T19:21:51.000Z,11.20
2018-03-03T19:24:17.695Z,12.80
2018-03-03T19:26:43.693Z,11.73
2018-03-03T19:29:09.650Z,11.65
2018-03-03T19:31:35.640Z,11.18
2018-03-03T19:34:06.466Z,13.82
2018-03-03T19:36:32.438Z,13.32
2018-03-03T19:38:58.432Z,12.30
2018-03-03T19:41:24.521Z,12.20
2018-03-03T19:43:50.473Z,13.52
2018-03-03T19:46:16.467Z,12.63
2018-03-03T19:48:43.170Z,13.07
2018-03-03T19:51:09.250Z,13.85
2018-03-03T19:53:35.198Z,14.45
2018-03-03T19:56:01.190Z,15.32
2018-03-03T19:58:27.144Z,15.25
2018-03-03T20:00:53.141Z,15.40
2018-03-03T20:03:19.175Z,16.58
2018-03-03T20:05:46.000Z,15.35
2018-03-03T20:08:11.962Z,14.77
2018-03-03T20:10:37.921Z,12.30
2018-03-03T20:13:04.693Z,13.20
2018-03-03T20:15:30.621Z,13.95
2018-03-03T20:17:56.573Z,13.40
2018-03-03T20:20:22.568Z,12.50
2018-03-03T20:22:48.651Z,11.32
2018-03-03T20:25:15.408Z,11.60
2018-03-03T20:27:41.397Z,11.93
2018-03-03T20:30:07.382Z,13.35
2018-03-03T20:32:33.369Z,13.73
2018-03-03T20:35:00.077Z,11.90
2018-03-03T20:37:26.085Z,13.43
2018-03-03T20:39:52.107Z,14.10
2018-03-03T20:42:18.224Z,15.80
2018-03-03T20:44:44.193Z,15.93
2018-03-03T20:47:10.872Z,15.88
2018-03-03T20:49:37.637Z,16.50
2018-03-03T21:02:47.870Z,19.98
2018-03-03T21:05:13.837Z,18.50
2018-03-03T21:07:39.871Z,19.73
2018-03-03T21:10:06.014Z,22.20
2018-03-03T21:12:32.027Z,24.42
2018-03-03T21:14:57.977Z,25.10
2018-03-03T21:17:23.969Z,24.07
2018-03-03T21:19:49.945Z,27.33
2018-03-03T21:22:15.946Z,26.80
2018-03-03T21:24:41.895Z,26.75
2018-03-03T21:27:08.786Z,27.93
2018-03-03T21:29:34.755Z,27.50
2018-03-03T21:32:00.757Z,26.40
2018-03-03T21:34:26.723Z,27.27
2018-03-03T21:36:53.560Z,28.35
2018-03-03T21:39:20.297Z,26.92
2018-03-03T21:41:47.012Z,29.45
2018-03-03T21:44:13.109Z,26.08
2018-03-03T21:46:39.076Z,29.10
2018-03-03T21:49:06.001Z,30.95
2018-03-03T21:51:31.976Z,29.92
2018-03-03T21:53:57.973Z,29.10
2018-03-03T21:56:24.698Z,29.08
2018-03-03T21:58:50.674Z,30.25
2018-03-03T22:01:16.617Z,30.45
2018-03-03T22:03:42.577Z,30.77
2018-03-03T22:06:09.414Z,30.90
2018-03-03T22:08:35.373Z,30.83
2018-03-03T22:11:01.348Z,30.85
2018-03-03T22:13:27.318Z,30.10
2018-03-03T22:15:53.328Z,30.52
2018-03-03T22:18:19.271Z,31.95
2018-03-03T22:20:45.364Z,32.20
2018-03-03T22:23:12.073Z,32.88
2018-03-03T22:25:38.020Z,34.80
2018-03-03T22:28:04.014Z,32.53
2018-03-03T22:30:29.990Z,32.88
2018-03-03T22:32:55.987Z,33.90
2018-03-03T22:35:22.852Z,31.98
2018-03-03T22:37:48.822Z,32.65
2018-03-03T22:40:14.934Z,32.83
2018-03-03T22:42:40.905Z,31.62
2018-03-03T22:45:06.901Z,30.20
2018-03-03T22:47:32.838Z,32.42
2018-03-03T22:49:59.658Z,30.77
2018-03-03T22:52:25.605Z,32.80
2018-03-03T22:54:52.340Z,34.20
2018-03-03T22:57:18.276Z,36.80
2018-03-03T22:59:45.005Z,36.60
2018-03-03T23:02:11.741Z,40.58
2018-03-03T23:04:37.676Z,36.97
2018-03-03T23:07:04.384Z,38.53
2018-03-03T23:09:30.350Z,37.38
2018-03-03T23:11:56.428Z,37.08
2018-03-03T23:14:22.396Z,38.10
2018-03-03T23:16:48.395Z,40.60
2018-03-03T23:19:14.398Z,39.25
2018-03-03T23:21:40.376Z,40.30
2018-03-03T23:24:06.485Z,39.88
2018-03-03T23:26:32.434Z,39.08
2018-03-03T23:28:58.400Z,43.00
2018-03-03T23:31:24.363Z,42.65
2018-03-03T23:33:50.333Z,41.83
2018-03-03T23:36:16.319Z,40.55
2018-03-03T23:38:42.413Z,39.75
2018-03-03T23:41:08.440Z,38.97
2018-03-03T23:43:34.541Z,38.60
2018-03-03T23:46:00.508Z,35.95
2018-03-03T23:48:26.464Z,36.20
2018-03-03T23:50:52.450Z,36.45
2018-03-03T23:53:18.399Z,39.97
2018-03-03T23:55:44.519Z,35.00
2018-03-03T23:58:10.465Z,35.25
